Time;durP1;ratioP1;P1;durP2;ratioP2;P2;SDS_P1;SDS_P2;PMS_P1;PMS_P2;Temp;Humidity;BMP_temperature;BMP_pressure;BME280_temperature;BME280_humidity;BME280_pressure;Samples;Min_cycle;Max_cycle;Signal;HPM_P1;HPM_P2
2021/05/22 00:00:23;;;;;;;7.90;6.37;;;;;;;;;;5004713;28;20724;-96
2021/05/22 00:02:49;;;;;;;7.43;6.33;;;;;;;;;;5001673;28;20484;-96
2021/05/22 00:05:15;;;;;;;6.80;6.10;;;;;;;;;;5004169;28;20455;-96
2021/05/22 00:07:42;;;;;;;10.00;6.50;;;;;;;;;;5001012;28;20463;-96
2021/05/22 00:10:11;;;;;;;8.37;6.20;;;;;;;;;;5004094;28;20458;-95
2021/05/22 00:12:37;;;;;;;6.83;6.13;;;;;;;;;;4997829;28;20478;-96
2021/05/22 00:15:04;;;;;;;9.43;6.50;;;;;;;;;;5005019;28;20508;-96
2021/05/22 00:17:30;;;;;;;7.03;6.30;;;;;;;;;;5001568;28;20496;-96
2021/05/22 00:19:56;;;;;;;6.93;6.23;;;;;;;;;;5003484;28;20453;-96
2021/05/22 00:22:22;;;;;;;7.53;6.50;;;;;;;;;;5003361;28;20448;-94
2021/05/22 00:24:49;;;;;;;6.90;6.17;;;;;;;;;;5009543;28;21013;-94
2021/05/22 00:27:15;;;;;;;6.07;5.47;;;;;;;;;;5006336;28;20593;-94
2021/05/22 00:29:41;;;;;;;7.77;6.10;;;;;;;;;;5010325;28;20456;-94
2021/05/22 00:32:07;;;;;;;7.00;6.30;;;;;;;;;;5007285;28;20437;-95
2021/05/22 00:34:33;;;;;;;7.07;6.03;;;;;;;;;;5010214;28;20487;-95
2021/05/22 00:36:59;;;;;;;8.40;7.47;;;;;;;;;;5006784;28;20496;-95
2021/05/22 00:39:25;;;;;;;9.03;8.10;;;;;;;;;;5003838;28;20453;-96
2021/05/22 00:41:53;;;;;;;9.30;7.07;;;;;;;;;;5006133;28;20954;-94
2021/05/22 00:44:19;;;;;;;6.87;6.20;;;;;;;;;;5003735;28;20456;-95
2021/05/22 00:46:45;;;;;;;6.87;5.87;;;;;;;;;;5012661;28;20456;-95
2021/05/22 00:49:11;;;;;;;7.10;6.40;;;;;;;;;;5010888;28;20451;-95
2021/05/22 00:51:37;;;;;;;10.93;8.33;;;;;;;;;;5005755;28;20455;-96
2021/05/22 00:54:04;;;;;;;12.77;9.50;;;;;;;;;;5007786;28;20486;-94
2021/05/22 00:56:30;;;;;;;8.73;7.77;;;;;;;;;;5008440;28;20938;-95
2021/05/22 00:58:57;;;;;;;8.80;6.63;;;;;;;;;;5004113;28;20444;-94
2021/05/22 01:01:23;;;;;;;12.40;7.53;;;;;;;;;;5006437;28;20486;-94
2021/05/22 01:03:51;;;;;;;8.20;7.13;;;;;;;;;;5004824;28;20484;-96
2021/05/22 01:06:26;;;;;;;7.97;6.90;;;;;;;;;;5003087;28;20453;-95
2021/05/22 01:08:53;;;;;;;10.37;6.67;;;;;;;;;;5005164;28;20465;-95
2021/05/22 01:11:21;;;;;;;8.50;6.77;;;;;;;;;;5005223;28;20457;-95
2021/05/22 01:13:48;;;;;;;8.10;7.10;;;;;;;;;;4997446;28;20519;-94
2021/05/22 01:16:17;;;;;;;8.00;7.20;;;;;;;;;;5004331;28;20465;-94
2021/05/22 01:18:43;;;;;;;9.47;6.80;;;;;;;;;;5004802;28;20456;-95
2021/05/22 01:21:10;;;;;;;8.83;7.47;;;;;;;;;;5004469;28;20473;-94
2021/05/22 01:23:37;;;;;;;10.60;7.40;;;;;;;;;;5005553;28;20448;-95
2021/05/22 01:26:04;;;;;;;8.23;7.37;;;;;;;;;;4999673;28;20466;-92
2021/05/22 01:28:30;;;;;;;10.00;7.93;;;;;;;;;;5005372;28;20475;-94
2021/05/22 01:30:56;;;;;;;8.90;7.47;;;;;;;;;;5005332;28;20457;-95
2021/05/22 01:33:23;;;;;;;11.00;8.10;;;;;;;;;;5005397;28;20453;-94
2021/05/22 01:35:49;;;;;;;9.90;7.70;;;;;;;;;;5006993;28;20475;-93
2021/05/22 01:38:15;;;;;;;11.40;7.83;;;;;;;;;;5005540;28;20492;-93
2021/05/22 01:40:42;;;;;;;10.73;7.47;;;;;;;;;;5005653;28;20460;-93
2021/05/22 01:43:09;;;;;;;11.07;7.73;;;;;;;;;;5005842;28;20496;-94
2021/05/22 01:45:36;;;;;;;9.87;8.00;;;;;;;;;;5005898;28;20449;-95
2021/05/22 01:48:03;;;;;;;9.60;8.57;;;;;;;;;;5017474;28;20429;-94
2021/05/22 01:50:30;;;;;;;12.43;8.17;;;;;;;;;;5018135;28;20441;-94
2021/05/22 01:52:56;;;;;;;10.63;8.80;;;;;;;;;;5019528;28;20488;-94
2021/05/22 01:55:22;;;;;;;9.37;8.10;;;;;;;;;;5017429;28;20469;-95
2021/05/22 01:57:49;;;;;;;9.23;7.20;;;;;;;;;;5007965;28;20500;-95
2021/05/22 02:00:17;;;;;;;8.40;7.40;;;;;;;;;;5005053;28;20449;-94
2021/05/22 02:02:50;;;;;;;9.47;6.83;;;;;;;;;;5006360;28;20489;-94
2021/05/22 02:05:16;;;;;;;6.77;6.17;;;;;;;;;;5004701;28;20493;-94
2021/05/22 02:07:42;;;;;;;10.57;6.93;;;;;;;;;;5007121;28;20472;-94
2021/05/22 02:10:10;;;;;;;7.57;6.77;;;;;;;;;;4998871;28;20461;-94
2021/05/22 02:12:36;;;;;;;6.70;6.07;;;;;;;;;;4997199;28;20480;-94
2021/05/22 02:15:03;;;;;;;8.70;7.57;;;;;;;;;;5005104;28;20464;-95
2021/05/22 02:17:30;;;;;;;13.53;8.00;;;;;;;;;;5007685;28;20484;-94
2021/05/22 02:20:00;;;;;;;16.00;10.10;;;;;;;;;;5003427;28;20456;-96
2021/05/22 02:22:26;;;;;;;11.97;9.43;;;;;;;;;;5004863;28;20457;-94
2021/05/22 02:24:52;;;;;;;11.27;9.30;;;;;;;;;;5007778;28;20515;-94
2021/05/22 02:27:19;;;;;;;11.03;9.60;;;;;;;;;;5003525;28;21955;-93
2021/05/22 02:29:46;;;;;;;10.90;8.80;;;;;;;;;;5010455;28;20929;-94
2021/05/22 02:32:13;;;;;;;9.20;8.20;;;;;;;;;;5004864;28;20457;-94
2021/05/22 02:34:42;;;;;;;8.70;7.63;;;;;;;;;;5007884;28;20456;-93
2021/05/22 02:37:09;;;;;;;8.60;7.50;;;;;;;;;;5003586;28;20515;-93
2021/05/22 02:39:35;;;;;;;10.07;7.50;;;;;;;;;;5008120;28;20467;-94
2021/05/22 02:42:02;;;;;;;10.23;9.00;;;;;;;;;;4994583;28;20565;-94
2021/05/22 02:44:29;;;;;;;9.70;8.03;;;;;;;;;;5001282;28;20453;-93
2021/05/22 02:46:55;;;;;;;8.03;6.80;;;;;;;;;;5002320;28;20491;-94
2021/05/22 02:49:25;;;;;;;13.03;8.50;;;;;;;;;;5002967;28;20453;-94
2021/05/22 02:51:54;;;;;;;8.93;7.40;;;;;;;;;;5004356;28;20463;-94
2021/05/22 02:54:20;;;;;;;8.57;7.70;;;;;;;;;;5001370;28;20457;-92
2021/05/22 02:56:46;;;;;;;7.80;7.00;;;;;;;;;;4995655;28;20500;-93
2021/05/22 02:59:14;;;;;;;11.67;7.20;;;;;;;;;;5001631;28;20453;-94
2021/05/22 03:01:41;;;;;;;11.00;8.10;;;;;;;;;;5002210;28;20453;-93
2021/05/22 03:04:07;;;;;;;12.63;8.57;;;;;;;;;;5002477;28;20461;-95
2021/05/22 03:06:33;;;;;;;8.90;7.07;;;;;;;;;;5003160;28;20488;-94
2021/05/22 03:09:00;;;;;;;9.83;8.10;;;;;;;;;;5003173;28;20862;-94
2021/05/22 03:11:26;;;;;;;10.77;8.50;;;;;;;;;;5003316;28;20453;-94
2021/05/22 03:13:52;;;;;;;11.17;9.40;;;;;;;;;;5003814;28;20828;-94
2021/05/22 03:16:19;;;;;;;10.70;9.33;;;;;;;;;;5004001;28;20457;-92
2021/05/22 03:18:45;;;;;;;12.73;9.30;;;;;;;;;;5002706;28;20812;-93
2021/05/22 03:21:11;;;;;;;17.47;12.23;;;;;;;;;;5002247;28;21139;-93
2021/05/22 03:23:37;;;;;;;17.63;13.17;;;;;;;;;;5003163;28;20461;-94
2021/05/22 03:26:04;;;;;;;23.37;14.00;;;;;;;;;;4999562;28;20496;-93
2021/05/22 03:28:30;;;;;;;26.07;17.00;;;;;;;;;;5003527;28;20461;-93
2021/05/22 03:30:56;;;;;;;21.87;15.43;;;;;;;;;;5004273;28;20499;-93
2021/05/22 03:33:22;;;;;;;25.53;15.13;;;;;;;;;;5002975;28;20478;-94
2021/05/22 03:35:48;;;;;;;17.07;13.43;;;;;;;;;;5004845;28;20816;-95
2021/05/22 03:38:14;;;;;;;18.00;14.23;;;;;;;;;;4986110;28;20520;-95
2021/05/22 03:40:40;;;;;;;15.10;12.37;;;;;;;;;;5004422;28;20471;-95
2021/05/22 03:43:07;;;;;;;15.57;10.87;;;;;;;;;;5002310;28;20480;-95
2021/05/22 03:45:33;;;;;;;19.67;13.20;;;;;;;;;;5000696;28;20464;-94
2021/05/22 03:47:59;;;;;;;17.90;14.67;;;;;;;;;;5002821;28;20468;-95
2021/05/22 03:50:25;;;;;;;20.80;16.70;;;;;;;;;;5002062;28;20605;-93
2021/05/22 03:52:51;;;;;;;23.27;17.57;;;;;;;;;;5007190;28;20452;-95
2021/05/22 03:55:18;;;;;;;23.77;19.50;;;;;;;;;;4995431;28;20450;-94
2021/05/22 03:57:44;;;;;;;23.20;17.77;;;;;;;;;;5005498;28;20529;-94
2021/05/22 04:00:11;;;;;;;22.17;16.00;;;;;;;;;;5007438;28;20453;-94
2021/05/22 04:02:37;;;;;;;25.40;17.97;;;;;;;;;;5011411;28;20464;-92
2021/05/22 04:05:04;;;;;;;20.67;14.90;;;;;;;;;;5005775;28;20448;-94
2021/05/22 04:07:31;;;;;;;19.50;15.30;;;;;;;;;;5009410;28;20457;-94
2021/05/22 04:09:57;;;;;;;21.90;17.37;;;;;;;;;;5007039;28;20966;-94
2021/05/22 04:12:22;;;;;;;25.10;20.67;;;;;;;;;;5011338;28;20501;-93
2021/05/22 04:14:48;;;;;;;29.53;20.57;;;;;;;;;;5007287;28;20456;-95
2021/05/22 04:17:15;;;;;;;36.50;29.87;;;;;;;;;;5011617;28;20546;-93
2021/05/22 04:19:41;;;;;;;44.67;35.57;;;;;;;;;;5006243;28;20440;-94
2021/05/22 04:22:07;;;;;;;39.80;33.30;;;;;;;;;;5008891;28;20539;-93
2021/05/22 04:24:34;;;;;;;39.40;32.80;;;;;;;;;;5010353;28;20445;-94
2021/05/22 04:27:00;;;;;;;40.07;33.23;;;;;;;;;;5005969;28;20460;-95
2021/05/22 04:29:26;;;;;;;40.77;33.00;;;;;;;;;;5012785;28;20464;-93
2021/05/22 04:31:52;;;;;;;37.30;30.43;;;;;;;;;;5006203;28;20453;-94
2021/05/22 04:34:19;;;;;;;36.90;31.00;;;;;;;;;;5004322;28;20460;-94
2021/05/22 04:36:45;;;;;;;32.03;26.53;;;;;;;;;;5006977;28;20522;-93
2021/05/22 04:39:11;;;;;;;28.40;21.77;;;;;;;;;;5004054;28;20456;-95
2021/05/22 04:41:37;;;;;;;30.70;18.50;;;;;;;;;;4996858;28;20472;-93
2021/05/22 04:44:03;;;;;;;36.77;18.80;;;;;;;;;;5004064;28;20935;-95
2021/05/22 04:46:29;;;;;;;28.73;18.67;;;;;;;;;;5005964;28;20451;-95
2021/05/22 04:48:56;;;;;;;29.70;19.20;;;;;;;;;;5006238;28;20450;-95
2021/05/22 04:51:24;;;;;;;25.63;17.93;;;;;;;;;;5007588;28;20456;-95
2021/05/22 04:53:50;;;;;;;27.10;20.33;;;;;;;;;;5004816;28;20477;-95
2021/05/22 04:56:16;;;;;;;28.70;20.50;;;;;;;;;;5007707;28;20459;-95
2021/05/22 04:58:42;;;;;;;29.10;21.07;;;;;;;;;;5010392;28;20469;-95
2021/05/22 05:01:08;;;;;;;28.47;21.10;;;;;;;;;;5014085;28;20449;-92
2021/05/22 05:03:34;;;;;;;24.27;18.63;;;;;;;;;;5012214;28;20482;-94
2021/05/22 05:06:00;;;;;;;24.43;18.63;;;;;;;;;;5006835;28;20449;-96
2021/05/22 05:08:28;;;;;;;26.90;19.67;;;;;;;;;;5004302;28;20466;-95
2021/05/22 05:10:54;;;;;;;25.03;20.30;;;;;;;;;;5003367;28;20480;-95
2021/05/22 05:13:21;;;;;;;23.67;18.17;;;;;;;;;;5004645;28;20459;-95
2021/05/22 05:15:47;;;;;;;25.23;19.30;;;;;;;;;;5007119;28;20490;-95
2021/05/22 05:18:13;;;;;;;22.27;19.40;;;;;;;;;;5005923;28;20635;-94
2021/05/22 05:20:39;;;;;;;24.57;18.83;;;;;;;;;;5027849;23;20890;-96
2021/05/22 05:23:17;;;;;;;20.40;15.40;;;;;;;;;;5025420;28;20452;-96
2021/05/22 05:25:44;;;;;;;19.33;15.70;;;;;;;;;;5035000;28;20455;-95
2021/05/22 05:28:14;;;;;;;23.20;17.63;;;;;;;;;;5026645;28;20451;-95
2021/05/22 05:38:45;;;;;;;25.90;18.30;;;;;;;;;;5079644;23;20476;-96
2021/05/22 05:41:13;;;;;;;26.33;18.17;;;;;;;;;;5036652;28;20483;-96
2021/05/22 05:43:39;;;;;;;25.63;18.37;;;;;;;;;;5043933;28;20476;-96
2021/05/22 05:46:05;;;;;;;26.80;18.23;;;;;;;;;;5031379;28;20943;-96
2021/05/22 05:48:32;;;;;;;23.50;17.10;;;;;;;;;;5035819;28;20549;-96
2021/05/22 05:50:59;;;;;;;22.70;18.50;;;;;;;;;;5045696;28;20530;-96
2021/05/22 05:53:25;;;;;;;25.23;18.20;;;;;;;;;;5043712;28;20469;-97
2021/05/22 05:55:59;;;;;;;23.00;17.93;;;;;;;;;;5041010;28;20452;-96
2021/05/22 06:04:10;;;;;;;;;;;;;;;;;;;;;
2021/05/22 06:06:39;;;;;;;17.00;13.80;;;;;;;;;;5035478;28;20460;-96
2021/05/22 06:09:06;;;;;;;16.80;12.90;;;;;;;;;;5040997;28;20459;-96
2021/05/22 06:11:34;;;;;;;21.13;14.03;;;;;;;;;;5046425;28;20467;-96
2021/05/22 06:14:01;;;;;;;19.97;13.20;;;;;;;;;;5044962;28;20446;-95
2021/05/22 06:16:34;;;;;;;14.67;12.60;;;;;;;;;;5041680;28;20455;-96
2021/05/22 06:19:05;;;;;;;16.50;12.10;;;;;;;;;;5043324;28;20457;-96
2021/05/22 06:21:41;;;;;;;15.50;12.40;;;;;;;;;;5019361;28;20470;-95
2021/05/22 06:24:10;;;;;;;13.03;11.27;;;;;;;;;;5036194;28;20465;-96
2021/05/22 06:26:38;;;;;;;15.27;11.07;;;;;;;;;;5033037;28;20538;-95
2021/05/22 06:29:05;;;;;;;14.40;10.03;;;;;;;;;;5027185;28;20444;-96
2021/05/22 06:31:34;;;;;;;13.70;11.93;;;;;;;;;;5031477;28;20492;-95
2021/05/22 06:34:16;;;;;;;14.30;11.63;;;;;;;;;;5046506;28;20450;-96
2021/05/22 06:36:42;;;;;;;13.17;11.30;;;;;;;;;;5047856;28;20435;-95
2021/05/22 06:39:08;;;;;;;15.97;12.37;;;;;;;;;;5038741;28;20469;-95
2021/05/22 06:41:34;;;;;;;14.03;12.13;;;;;;;;;;5044703;28;20477;-95
2021/05/22 06:44:01;;;;;;;13.40;12.00;;;;;;;;;;5037568;28;20460;-96
2021/05/22 06:46:47;;;;;;;13.83;12.47;;;;;;;;;;5025809;28;21015;-96
2021/05/22 06:49:13;;;;;;;15.73;12.67;;;;;;;;;;5041208;28;20523;-95
2021/05/22 06:51:48;;;;;;;16.40;11.07;;;;;;;;;;5039095;28;20455;-96
2021/05/22 06:54:48;;;;;;;15.50;13.90;;;;;;;;;;5031524;28;20470;-96
2021/05/22 06:57:16;;;;;;;14.97;13.47;;;;;;;;;;5039053;28;20475;-96
2021/05/22 06:59:42;;;;;;;18.30;13.90;;;;;;;;;;5168020;23;20487;-96
2021/05/22 07:02:09;;;;;;;14.00;12.60;;;;;;;;;;5040711;28;20466;-96
2021/05/22 07:04:36;;;;;;;12.47;11.17;;;;;;;;;;5032633;28;20466;-94
2021/05/22 07:07:05;;;;;;;13.33;12.03;;;;;;;;;;5037192;28;20459;-96
2021/05/22 07:09:34;;;;;;;13.53;12.13;;;;;;;;;;5040377;28;20459;-96
2021/05/22 07:12:00;;;;;;;13.43;11.67;;;;;;;;;;5032098;28;20477;-95
2021/05/22 07:14:27;;;;;;;13.33;11.97;;;;;;;;;;5029571;28;20497;-96
2021/05/22 07:16:55;;;;;;;12.40;10.77;;;;;;;;;;5042840;28;20452;-96
2021/05/22 07:27:35;;;;;;;15.30;13.80;;;;;;;;;;5018537;28;20500;-96
2021/05/22 07:30:03;;;;;;;14.53;13.10;;;;;;;;;;5022953;28;20462;-96
2021/05/22 07:37:44;;;;;;;15.10;13.70;;;;;;;;;;5053891;28;20495;-96
2021/05/22 07:40:12;;;;;;;17.50;15.63;;;;;;;;;;5055915;23;20497;-96
2021/05/22 07:42:48;;;;;;;16.63;14.93;;;;;;;;;;5063946;23;20477;-96
2021/05/22 08:33:12;;;;;;;12.10;11.00;;;;;;;;;;6099670;23;20398;31
2021/05/22 08:41:09;;;;;;;10.57;9.57;;;;;;;;;;5632959;23;20546;-96
2021/05/22 08:43:47;;;;;;;10.90;9.93;;;;;;;;;;5033452;28;20950;-96
2021/05/22 08:46:13;;;;;;;9.90;8.80;;;;;;;;;;5031630;28;20573;-96
2021/05/22 08:54:12;;;;;;;6.77;6.27;;;;;;;;;;5483578;23;20438;-95
2021/05/22 08:56:38;;;;;;;5.83;5.13;;;;;;;;;;5061402;28;20472;-95
2021/05/22 08:59:07;;;;;;;6.00;5.50;;;;;;;;;;5178752;22;20493;-95
2021/05/22 09:01:46;;;;;;;5.40;4.87;;;;;;;;;;5049356;28;20450;-96
2021/05/22 09:04:17;;;;;;;4.50;4.10;;;;;;;;;;5047229;28;20442;-96
2021/05/22 09:35:27;;;;;;;4.87;3.70;;;;;;;;;;5454611;23;20485;-96
2021/05/22 09:40:43;;;;;;;3.40;3.20;;;;;;;;;;5732719;22;20478;-96
2021/05/22 09:45:54;;;;;;;3.60;3.40;;;;;;;;;;4862741;26;20486;-95
2021/05/22 09:53:56;;;;;;;3.03;2.83;;;;;;;;;;5224991;22;20490;-96
2021/05/22 10:13:23;;;;;;;3.10;2.90;;;;;;;;;;5058415;23;20506;-95
2021/05/22 10:15:50;;;;;;;3.00;2.80;;;;;;;;;;5025140;28;20463;-96
2021/05/22 10:18:22;;;;;;;3.57;3.27;;;;;;;;;;5057211;23;20504;-96
2021/05/22 10:23:25;;;;;;;3.07;2.87;;;;;;;;;;5060755;28;20496;-96
2021/05/22 10:25:58;;;;;;;3.10;2.90;;;;;;;;;;5060726;28;20470;-96
2021/05/22 10:31:09;;;;;;;2.87;2.67;;;;;;;;;;5054070;28;20439;-95
2021/05/22 10:33:44;;;;;;;2.87;2.67;;;;;;;;;;5045723;28;20434;-94
2021/05/22 10:36:33;;;;;;;2.93;2.83;;;;;;;;;;5055417;28;20537;-96
2021/05/22 10:39:31;;;;;;;3.20;3.00;;;;;;;;;;5065743;28;20486;-96
2021/05/22 10:41:58;;;;;;;3.20;2.97;;;;;;;;;;5047605;28;20466;-96
2021/05/22 10:44:38;;;;;;;3.40;3.20;;;;;;;;;;5054413;23;20531;-96
2021/05/22 10:47:06;;;;;;;3.17;2.57;;;;;;;;;;5016144;28;20471;-96
2021/05/22 10:49:50;;;;;;;3.00;2.70;;;;;;;;;;5010894;28;20524;-96
2021/05/22 10:52:17;;;;;;;4.07;3.00;;;;;;;;;;5018478;28;20448;-96
2021/05/22 10:58:15;;;;;;;3.20;3.00;;;;;;;;;;5006095;28;20500;-96
2021/05/22 11:11:33;;;;;;;2.80;2.60;;;;;;;;;;5471534;23;20566;-96
2021/05/22 11:17:02;;;;;;;3.30;3.10;;;;;;;;;;5508533;22;20455;-96
2021/05/22 11:45:24;;;;;;;3.23;3.03;;;;;;;;;;5404949;22;20529;-96
2021/05/22 11:47:55;;;;;;;3.40;3.20;;;;;;;;;;5075212;28;20438;-96
2021/05/22 11:58:54;;;;;;;7.07;3.27;;;;;;;;;;5187183;22;20478;-95
2021/05/22 12:01:56;;;;;;;6.70;3.50;;;;;;;;;;5048601;28;20510;-96
2021/05/22 12:04:26;;;;;;;3.87;3.67;;;;;;;;;;5053357;28;20463;-96
2021/05/22 12:06:52;;;;;;;3.40;3.20;;;;;;;;;;5046464;28;20539;-94
2021/05/22 12:09:20;;;;;;;4.20;3.70;;;;;;;;;;5060346;28;20435;-96
2021/05/22 12:12:01;;;;;;;3.87;3.57;;;;;;;;;;5059039;28;20457;-96
2021/05/22 12:14:59;;;;;;;3.30;3.10;;;;;;;;;;5052563;28;20454;-94
2021/05/22 12:17:26;;;;;;;4.00;3.40;;;;;;;;;;5047076;28;20486;-95
2021/05/22 12:20:00;;;;;;;3.47;3.17;;;;;;;;;;5051409;28;20466;-96
2021/05/22 12:22:28;;;;;;;3.93;3.63;;;;;;;;;;5057674;28;20418;-96
2021/05/22 12:27:40;;;;;;;4.17;3.77;;;;;;;;;;5058952;28;20453;-95
2021/05/22 12:30:11;;;;;;;4.80;3.60;;;;;;;;;;5060372;28;20473;-96
2021/05/22 12:32:43;;;;;;;3.80;3.50;;;;;;;;;;5061307;28;20537;-96
2021/05/22 12:35:11;;;;;;;5.67;3.83;;;;;;;;;;5122924;23;20532;-94
2021/05/22 12:37:38;;;;;;;3.73;3.53;;;;;;;;;;5069458;28;21089;-96
2021/05/22 12:40:16;;;;;;;5.13;3.50;;;;;;;;;;5063031;28;20490;-96
2021/05/22 12:42:45;;;;;;;4.30;3.90;;;;;;;;;;5070749;28;20926;-94
2021/05/22 12:45:17;;;;;;;4.80;3.73;;;;;;;;;;5057118;23;20579;-94
2021/05/22 12:47:53;;;;;;;4.17;3.00;;;;;;;;;;5087972;23;20564;-94
2021/05/22 12:50:40;;;;;;;5.20;3.10;;;;;;;;;;5060312;28;20448;-96
2021/05/22 12:53:11;;;;;;;3.30;3.10;;;;;;;;;;5061049;28;20479;-94
2021/05/22 12:55:50;;;;;;;2.90;2.80;;;;;;;;;;5057773;28;20435;-96
2021/05/22 12:58:29;;;;;;;3.67;3.43;;;;;;;;;;5066372;28;20490;-96
2021/05/22 13:01:00;;;;;;;2.90;2.70;;;;;;;;;;5071168;28;20442;-96
2021/05/22 13:06:29;;;;;;;3.47;3.17;;;;;;;;;;5064271;28;20502;-96
2021/05/22 13:09:11;;;;;;;4.17;3.70;;;;;;;;;;5073905;28;20454;-95
2021/05/22 13:11:37;;;;;;;3.47;3.17;;;;;;;;;;5060939;28;20487;-96
2021/05/22 13:14:10;;;;;;;3.47;3.27;;;;;;;;;;5057618;28;21801;-95
2021/05/22 13:17:03;;;;;;;3.40;3.10;;;;;;;;;;5050042;22;20499;-93
2021/05/22 13:35:40;;;;;;;3.13;2.93;;;;;;;;;;5395512;22;20725;-95
2021/05/22 13:40:54;;;;;;;3.80;3.50;;;;;;;;;;5086854;23;20490;-96
2021/05/22 13:43:20;;;;;;;4.20;3.27;;;;;;;;;;5049891;28;20466;-96
2021/05/22 13:48:17;;;;;;;3.37;3.17;;;;;;;;;;5042033;28;20574;-93
2021/05/22 13:50:47;;;;;;;3.73;3.30;;;;;;;;;;5058748;28;20453;-96
2021/05/22 13:58:29;;;;;;;3.40;3.20;;;;;;;;;;5275370;23;20567;-96
2021/05/22 14:00:55;;;;;;;4.40;3.80;;;;;;;;;;5452671;23;20480;-95
2021/05/22 14:08:41;;;;;;;3.33;3.13;;;;;;;;;;5221808;22;20483;-96
2021/05/22 14:11:26;;;;;;;3.40;3.17;;;;;;;;;;5277257;23;20580;-96
2021/05/22 14:14:07;;;;;;;5.80;3.73;;;;;;;;;;5064412;28;20456;-96
2021/05/22 14:16:33;;;;;;;3.73;3.27;;;;;;;;;;5054860;28;20418;-96
2021/05/22 14:21:50;;;;;;;3.27;3.07;;;;;;;;;;5048703;28;20517;-96
2021/05/22 14:24:19;;;;;;;3.57;3.30;;;;;;;;;;5064873;28;20462;-96
2021/05/22 14:26:50;;;;;;;4.13;3.83;;;;;;;;;;5053506;28;20470;-96
2021/05/22 14:29:17;;;;;;;4.30;3.00;;;;;;;;;;5176898;22;20445;-95
2021/05/22 14:31:43;;;;;;;3.57;3.33;;;;;;;;;;5067252;28;20474;-95
2021/05/22 14:34:09;;;;;;;3.83;3.63;;;;;;;;;;5053611;28;20968;-94
2021/05/22 14:36:35;;;;;;;3.80;3.50;;;;;;;;;;5069990;28;20441;-96
2021/05/22 14:39:07;;;;;;;3.47;3.27;;;;;;;;;;5060954;28;20481;-96
2021/05/22 14:41:37;;;;;;;3.30;3.10;;;;;;;;;;5070981;28;20423;-96
2021/05/22 14:44:07;;;;;;;4.23;3.40;;;;;;;;;;5067927;23;20478;-95
2021/05/22 14:46:36;;;;;;;3.40;3.20;;;;;;;;;;5036977;28;20462;-96
2021/05/22 14:49:02;;;;;;;4.43;3.80;;;;;;;;;;5046862;28;20935;-95
2021/05/22 14:51:39;;;;;;;4.30;3.77;;;;;;;;;;5045782;28;20442;-96
2021/05/22 14:54:07;;;;;;;3.63;3.33;;;;;;;;;;5046968;28;20451;-96
2021/05/22 14:56:41;;;;;;;5.83;3.30;;;;;;;;;;5044309;28;20816;-96
2021/05/22 14:59:07;;;;;;;5.43;3.87;;;;;;;;;;5040226;28;20894;-94
2021/05/22 15:01:33;;;;;;;3.70;3.40;;;;;;;;;;5041843;28;20466;-94
2021/05/22 15:04:00;;;;;;;3.50;3.10;;;;;;;;;;5045477;28;20477;-94
2021/05/22 15:06:28;;;;;;;3.50;3.30;;;;;;;;;;5046005;28;20465;-93
2021/05/22 15:08:55;;;;;;;4.20;3.50;;;;;;;;;;5045684;28;20444;-95
2021/05/22 15:11:22;;;;;;;3.40;3.20;;;;;;;;;;5040476;28;20470;-95
2021/05/22 15:28:09;;;;;;;3.67;3.37;;;;;;;;;;5049241;28;20526;-95
2021/05/22 15:31:00;;;;;;;3.50;3.30;;;;;;;;;;5051357;28;20459;-96
2021/05/22 15:33:27;;;;;;;4.40;3.30;;;;;;;;;;5050574;23;20514;-96
2021/05/22 15:36:03;;;;;;;4.20;3.90;;;;;;;;;;5049005;28;21024;-96
2021/05/22 15:38:37;;;;;;;3.60;3.40;;;;;;;;;;5028795;28;20558;-95
2021/05/22 15:44:05;;;;;;;3.97;3.67;;;;;;;;;;5047292;28;20423;-96
2021/05/22 16:06:06;;;;;;;3.60;3.30;;;;;;;;;;5081317;23;20527;-95
2021/05/22 16:08:32;;;;;;;5.23;3.60;;;;;;;;;;5066121;28;20531;-96
2021/05/22 16:13:34;;;;;;;6.67;3.87;;;;;;;;;;5534936;23;20967;-95
2021/05/22 16:16:01;;;;;;;6.33;3.63;;;;;;;;;;5054193;28;20439;-96
2021/05/22 16:18:51;;;;;;;5.27;3.80;;;;;;;;;;5044446;28;20663;-96
2021/05/22 16:23:52;;;;;;;5.70;3.57;;;;;;;;;;5382232;23;20565;-94
2021/05/22 16:29:27;;;;;;;3.60;3.40;;;;;;;;;;5056463;28;20468;-96
2021/05/22 16:31:56;;;;;;;4.17;3.77;;;;;;;;;;5047793;28;20438;-96
2021/05/22 16:34:22;;;;;;;4.40;3.67;;;;;;;;;;5050280;28;20465;-95
2021/05/22 16:36:54;;;;;;;3.70;3.50;;;;;;;;;;5054591;28;20476;-96
2021/05/22 16:39:20;;;;;;;4.00;3.70;;;;;;;;;;5058092;28;20500;-96
2021/05/22 16:41:46;;;;;;;4.30;4.00;;;;;;;;;;5050307;28;20448;-96
2021/05/22 16:44:12;;;;;;;4.30;3.90;;;;;;;;;;5047280;28;20476;-93
2021/05/22 16:46:41;;;;;;;4.37;4.00;;;;;;;;;;5050831;28;20442;-96
2021/05/22 16:49:39;;;;;;;5.77;3.70;;;;;;;;;;5064718;28;20455;-96
2021/05/22 16:52:21;;;;;;;8.57;4.40;;;;;;;;;;5058017;28;20459;-96
2021/05/22 16:54:48;;;;;;;6.90;4.10;;;;;;;;;;5068721;28;20446;-95
2021/05/22 16:57:18;;;;;;;5.90;3.80;;;;;;;;;;5061862;28;20427;-96
2021/05/22 17:02:47;;;;;;;4.83;3.50;;;;;;;;;;5060987;28;20433;-93
2021/05/22 17:05:14;;;;;;;3.90;3.60;;;;;;;;;;5055141;28;20455;-96
2021/05/22 17:07:41;;;;;;;6.73;3.70;;;;;;;;;;5035678;28;20543;-96
2021/05/22 17:10:08;;;;;;;8.00;3.83;;;;;;;;;;5043625;28;20458;-96
2021/05/22 17:12:44;;;;;;;4.17;3.80;;;;;;;;;;5065498;28;20442;-96
2021/05/22 17:15:18;;;;;;;4.93;4.53;;;;;;;;;;5041410;28;20461;-96
2021/05/22 17:17:45;;;;;;;5.60;4.73;;;;;;;;;;5017402;28;20460;-96
2021/05/22 17:20:12;;;;;;;4.27;3.97;;;;;;;;;;5063143;28;20906;-96
2021/05/22 17:22:38;;;;;;;3.90;3.60;;;;;;;;;;5054618;28;20432;-96
2021/05/22 17:25:04;;;;;;;4.63;3.90;;;;;;;;;;5054726;28;20475;-93
2021/05/22 17:27:31;;;;;;;4.80;4.30;;;;;;;;;;5050363;28;20461;-91
2021/05/22 17:29:57;;;;;;;4.50;4.10;;;;;;;;;;5052339;28;20451;-94
2021/05/22 17:32:23;;;;;;;4.00;3.70;;;;;;;;;;5044055;28;20458;-92
2021/05/22 17:34:49;;;;;;;5.83;3.70;;;;;;;;;;5056816;28;20442;-96
2021/05/22 17:37:15;;;;;;;4.00;3.80;;;;;;;;;;5035032;28;20459;-93
2021/05/22 17:39:41;;;;;;;3.53;3.10;;;;;;;;;;5038244;28;20491;-93
2021/05/22 17:42:07;;;;;;;4.03;3.70;;;;;;;;;;5035453;28;20455;-94
2021/05/22 17:44:34;;;;;;;5.37;3.47;;;;;;;;;;5032100;28;20458;-94
2021/05/22 17:47:00;;;;;;;4.67;4.00;;;;;;;;;;5049214;28;20513;-95
2021/05/22 17:49:26;;;;;;;4.27;3.87;;;;;;;;;;5041257;28;20451;-96
2021/05/22 17:51:52;;;;;;;4.53;3.60;;;;;;;;;;5044936;28;20459;-96
2021/05/22 17:54:18;;;;;;;4.10;3.70;;;;;;;;;;5044692;28;20876;-95
2021/05/22 17:56:47;;;;;;;4.53;4.17;;;;;;;;;;5044690;28;20802;-93
2021/05/22 17:59:13;;;;;;;4.67;4.17;;;;;;;;;;5055501;28;20494;-96
2021/05/22 18:01:40;;;;;;;4.47;4.07;;;;;;;;;;5053252;28;20935;-96
2021/05/22 18:06:47;;;;;;;4.50;4.20;;;;;;;;;;5085903;23;20577;-96
2021/05/22 18:09:14;;;;;;;17.33;4.80;;;;;;;;;;5035593;28;20457;-96
2021/05/22 18:11:45;;;;;;;5.57;4.47;;;;;;;;;;5037218;28;20475;-96
2021/05/22 18:14:13;;;;;;;6.20;3.80;;;;;;;;;;5032137;28;20452;-96
2021/05/22 18:19:44;;;;;;;4.33;4.00;;;;;;;;;;5072552;23;20542;-96
2021/05/22 18:22:14;;;;;;;5.93;4.30;;;;;;;;;;5030392;28;20458;-95
2021/05/22 18:38:34;;;;;;;7.50;4.43;;;;;;;;;;5071615;28;20571;-96
2021/05/22 18:46:11;;;;;;;4.20;3.80;;;;;;;;;;6057177;23;20402;-96
2021/05/22 18:48:39;;;;;;;4.83;4.40;;;;;;;;;;5054834;28;20476;-96
2021/05/22 18:51:07;;;;;;;4.17;3.87;;;;;;;;;;5069615;28;20527;-96
2021/05/22 18:53:34;;;;;;;5.00;4.50;;;;;;;;;;5069616;28;20486;-95
2021/05/22 18:58:40;;;;;;;4.77;4.07;;;;;;;;;;5435325;23;20487;-96
2021/05/22 19:04:06;;;;;;;4.63;4.27;;;;;;;;;;5257069;23;20517;-96
2021/05/22 19:06:32;;;;;;;5.13;4.73;;;;;;;;;;5160319;23;20535;-96
2021/05/22 19:09:27;;;;;;;5.60;5.10;;;;;;;;;;5038845;28;20514;-96
2021/05/22 19:12:09;;;;;;;5.27;4.77;;;;;;;;;;5723546;22;20443;-96
2021/05/22 19:14:38;;;;;;;5.13;4.50;;;;;;;;;;5041346;23;20498;-96
2021/05/22 19:28:20;;;;;;;9.23;5.07;;;;;;;;;;5163868;22;20476;-96
2021/05/22 19:30:51;;;;;;;5.23;4.80;;;;;;;;;;5056104;28;20450;-96
2021/05/22 19:33:17;;;;;;;4.60;4.20;;;;;;;;;;5052330;28;20458;-96
2021/05/22 19:35:43;;;;;;;4.90;4.50;;;;;;;;;;5049095;28;20485;-96
2021/05/22 19:38:09;;;;;;;5.53;4.93;;;;;;;;;;5043452;28;20507;-96
2021/05/22 19:40:35;;;;;;;5.60;5.00;;;;;;;;;;5041826;28;20470;-95
2021/05/22 19:43:03;;;;;;;8.33;4.80;;;;;;;;;;5044437;28;21049;-95
2021/05/22 19:45:29;;;;;;;5.67;4.70;;;;;;;;;;5026936;28;20829;-95
2021/05/22 19:47:57;;;;;;;5.57;5.07;;;;;;;;;;5060161;28;20454;-96
2021/05/22 19:50:24;;;;;;;10.90;5.20;;;;;;;;;;5046664;28;20438;-95
2021/05/22 19:52:50;;;;;;;8.60;5.47;;;;;;;;;;5045873;28;21178;-95
2021/05/22 19:55:18;;;;;;;6.77;5.00;;;;;;;;;;5043110;28;20462;-96
2021/05/22 19:57:45;;;;;;;5.90;4.97;;;;;;;;;;5045232;28;20466;-96
2021/05/22 20:00:15;;;;;;;5.97;5.37;;;;;;;;;;5053272;28;20459;-96
2021/05/22 20:02:42;;;;;;;13.73;5.07;;;;;;;;;;5055537;28;20454;-96
2021/05/22 20:05:13;;;;;;;5.30;4.73;;;;;;;;;;5045553;28;20848;-96
2021/05/22 20:07:41;;;;;;;11.60;5.17;;;;;;;;;;5045485;28;20457;-96
2021/05/22 20:10:07;;;;;;;4.97;4.50;;;;;;;;;;5043170;28;20515;-96
2021/05/22 20:12:34;;;;;;;4.90;4.50;;;;;;;;;;5045528;28;20477;-96
2021/05/22 20:15:09;;;;;;;6.63;5.20;;;;;;;;;;5057355;28;20857;-95